sensor_id;sensor_type;location;lat;lon;timestamp;P1;durP1;ratioP1;P2;durP2;ratioP2
47882;SDS011;37739;50.350;7.578;2024-01-30T00:00:24;15.37;;;13.80;;
47882;SDS011;37739;50.350;7.578;2024-01-30T00:02:49;14.33;;;12.83;;
47882;SDS011;37739;50.350;7.578;2024-01-30T00:05:17;13.77;;;12.37;;
47882;SDS011;37739;50.350;7.578;2024-01-30T00:07:44;14.43;;;12.83;;
47882;SDS011;37739;50.350;7.578;2024-01-30T00:10:12;14.87;;;12.10;;
47882;SDS011;37739;50.350;7.578;2024-01-30T00:12:43;13.03;;;11.73;;
47882;SDS011;37739;50.350;7.578;2024-01-30T00:15:08;13.87;;;12.07;;
47882;SDS011;37739;50.350;7.578;2024-01-30T00:17:36;13.30;;;12.00;;
47882;SDS011;37739;50.350;7.578;2024-01-30T00:20:02;13.10;;;11.63;;
47882;SDS011;37739;50.350;7.578;2024-01-30T00:22:30;14.60;;;13.00;;
47882;SDS011;37739;50.350;7.578;2024-01-30T00:24:59;15.80;;;13.20;;
47882;SDS011;37739;50.350;7.578;2024-01-30T00:27:24;15.30;;;13.80;;
47882;SDS011;37739;50.350;7.578;2024-01-30T00:29:52;14.40;;;12.87;;
47882;SDS011;37739;50.350;7.578;2024-01-30T00:32:21;11.73;;;10.53;;
47882;SDS011;37739;50.350;7.578;2024-01-30T00:34:48;13.90;;;11.87;;
47882;SDS011;37739;50.350;7.578;2024-01-30T00:37:16;11.63;;;10.50;;
47882;SDS011;37739;50.350;7.578;2024-01-30T00:39:41;14.33;;;12.90;;
47882;SDS011;37739;50.350;7.578;2024-01-30T00:42:09;12.93;;;11.73;;
47882;SDS011;37739;50.350;7.578;2024-01-30T00:44:37;14.47;;;12.97;;
47882;SDS011;37739;50.350;7.578;2024-01-30T00:47:05;14.10;;;12.67;;
47882;SDS011;37739;50.350;7.578;2024-01-30T00:49:31;12.87;;;11.50;;
47882;SDS011;37739;50.350;7.578;2024-01-30T00:51:56;15.17;;;13.50;;
47882;SDS011;37739;50.350;7.578;2024-01-30T00:54:21;12.50;;;11.30;;
47882;SDS011;37739;50.350;7.578;2024-01-30T00:56:47;13.60;;;12.27;;
47882;SDS011;37739;50.350;7.578;2024-01-30T00:59:15;14.00;;;12.57;;
47882;SDS011;37739;50.350;7.578;2024-01-30T01:01:42;13.03;;;11.80;;
47882;SDS011;37739;50.350;7.578;2024-01-30T01:04:12;12.93;;;11.40;;
47882;SDS011;37739;50.350;7.578;2024-01-30T01:06:40;13.90;;;11.70;;
47882;SDS011;37739;50.350;7.578;2024-01-30T01:09:10;12.87;;;11.67;;
47882;SDS011;37739;50.350;7.578;2024-01-30T01:11:37;13.50;;;12.20;;
47882;SDS011;37739;50.350;7.578;2024-01-30T01:14:03;13.70;;;11.83;;
47882;SDS011;37739;50.350;7.578;2024-01-30T01:16:31;14.47;;;12.03;;
47882;SDS011;37739;50.350;7.578;2024-01-30T01:18:57;13.77;;;12.37;;
47882;SDS011;37739;50.350;7.578;2024-01-30T01:21:25;15.30;;;12.60;;
47882;SDS011;37739;50.350;7.578;2024-01-30T01:23:52;14.60;;;12.53;;
47882;SDS011;37739;50.350;7.578;2024-01-30T01:26:18;15.00;;;13.47;;
47882;SDS011;37739;50.350;7.578;2024-01-30T01:28:43;15.17;;;13.63;;
47882;SDS011;37739;50.350;7.578;2024-01-30T01:31:08;13.70;;;12.33;;
47882;SDS011;37739;50.350;7.578;2024-01-30T01:33:34;17.43;;;14.30;;
47882;SDS011;37739;50.350;7.578;2024-01-30T01:36:00;15.83;;;14.27;;
47882;SDS011;37739;50.350;7.578;2024-01-30T01:38:29;15.93;;;14.30;;
47882;SDS011;37739;50.350;7.578;2024-01-30T01:40:54;15.87;;;14.27;;
47882;SDS011;37739;50.350;7.578;2024-01-30T01:43:19;13.53;;;12.13;;
47882;SDS011;37739;50.350;7.578;2024-01-30T01:45:49;14.90;;;13.50;;
47882;SDS011;37739;50.350;7.578;2024-01-30T01:48:17;14.10;;;12.70;;
47882;SDS011;37739;50.350;7.578;2024-01-30T01:50:43;16.93;;;13.47;;
47882;SDS011;37739;50.350;7.578;2024-01-30T01:53:11;12.93;;;11.63;;
47882;SDS011;37739;50.350;7.578;2024-01-30T01:55:37;14.27;;;12.03;;
47882;SDS011;37739;50.350;7.578;2024-01-30T01:58:03;13.10;;;11.80;;
47882;SDS011;37739;50.350;7.578;2024-01-30T02:00:31;12.00;;;10.77;;
47882;SDS011;37739;50.350;7.578;2024-01-30T02:02:59;15.23;;;13.10;;
47882;SDS011;37739;50.350;7.578;2024-01-30T02:05:26;16.90;;;13.60;;
47882;SDS011;37739;50.350;7.578;2024-01-30T02:07:51;15.73;;;13.47;;
47882;SDS011;37739;50.350;7.578;2024-01-30T02:10:19;15.77;;;14.23;;
47882;SDS011;37739;50.350;7.578;2024-01-30T02:12:44;13.97;;;12.67;;
47882;SDS011;37739;50.350;7.578;2024-01-30T02:15:13;12.87;;;11.57;;
47882;SDS011;37739;50.350;7.578;2024-01-30T02:17:41;14.40;;;13.10;;
47882;SDS011;37739;50.350;7.578;2024-01-30T02:20:09;16.77;;;13.50;;
47882;SDS011;37739;50.350;7.578;2024-01-30T02:22:34;13.93;;;12.53;;
47882;SDS011;37739;50.350;7.578;2024-01-30T02:25:04;15.07;;;13.67;;
47882;SDS011;37739;50.350;7.578;2024-01-30T02:27:30;14.00;;;12.70;;
47882;SDS011;37739;50.350;7.578;2024-01-30T02:29:57;15.97;;;13.73;;
47882;SDS011;37739;50.350;7.578;2024-01-30T02:32:25;15.10;;;13.50;;
47882;SDS011;37739;50.350;7.578;2024-01-30T02:34:50;13.90;;;12.50;;
47882;SDS011;37739;50.350;7.578;2024-01-30T02:37:16;14.57;;;12.90;;
47882;SDS011;37739;50.350;7.578;2024-01-30T02:39:44;15.63;;;12.93;;
47882;SDS011;37739;50.350;7.578;2024-01-30T02:42:09;15.90;;;14.10;;
47882;SDS011;37739;50.350;7.578;2024-01-30T02:44:34;14.23;;;12.80;;
47882;SDS011;37739;50.350;7.578;2024-01-30T02:47:00;15.80;;;14.20;;
47882;SDS011;37739;50.350;7.578;2024-01-30T02:49:25;13.13;;;11.63;;
47882;SDS011;37739;50.350;7.578;2024-01-30T02:51:51;15.13;;;13.10;;
47882;SDS011;37739;50.350;7.578;2024-01-30T02:54:22;16.40;;;13.93;;
47882;SDS011;37739;50.350;7.578;2024-01-30T02:56:50;13.97;;;12.40;;
47882;SDS011;37739;50.350;7.578;2024-01-30T02:59:15;13.13;;;11.80;;
47882;SDS011;37739;50.350;7.578;2024-01-30T03:01:43;15.60;;;13.83;;
47882;SDS011;37739;50.350;7.578;2024-01-30T03:04:11;15.17;;;13.70;;
47882;SDS011;37739;50.350;7.578;2024-01-30T03:06:44;19.50;;;14.33;;
47882;SDS011;37739;50.350;7.578;2024-01-30T03:09:15;17.03;;;14.23;;
47882;SDS011;37739;50.350;7.578;2024-01-30T03:11:43;14.70;;;13.17;;
47882;SDS011;37739;50.350;7.578;2024-01-30T03:14:09;14.90;;;12.60;;
47882;SDS011;37739;50.350;7.578;2024-01-30T03:16:38;13.33;;;12.13;;
47882;SDS011;37739;50.350;7.578;2024-01-30T03:19:06;14.80;;;12.67;;
47882;SDS011;37739;50.350;7.578;2024-01-30T03:21:35;14.93;;;13.47;;
47882;SDS011;37739;50.350;7.578;2024-01-30T03:24:02;15.50;;;13.93;;
47882;SDS011;37739;50.350;7.578;2024-01-30T03:26:30;14.27;;;11.80;;
47882;SDS011;37739;50.350;7.578;2024-01-30T03:28:55;14.53;;;12.73;;
47882;SDS011;37739;50.350;7.578;2024-01-30T03:31:21;15.40;;;13.50;;
47882;SDS011;37739;50.350;7.578;2024-01-30T03:33:46;14.03;;;12.57;;
47882;SDS011;37739;50.350;7.578;2024-01-30T03:36:11;12.77;;;11.47;;
47882;SDS011;37739;50.350;7.578;2024-01-30T03:38:37;15.10;;;13.60;;
47882;SDS011;37739;50.350;7.578;2024-01-30T03:41:07;16.70;;;13.47;;
47882;SDS011;37739;50.350;7.578;2024-01-30T03:43:37;17.20;;;14.77;;
47882;SDS011;37739;50.350;7.578;2024-01-30T03:46:04;16.37;;;13.50;;
47882;SDS011;37739;50.350;7.578;2024-01-30T03:48:30;14.63;;;13.13;;
47882;SDS011;37739;50.350;7.578;2024-01-30T03:50:55;16.17;;;14.40;;
47882;SDS011;37739;50.350;7.578;2024-01-30T03:53:21;15.10;;;13.20;;
47882;SDS011;37739;50.350;7.578;2024-01-30T03:55:47;15.70;;;13.80;;
47882;SDS011;37739;50.350;7.578;2024-01-30T03:58:12;13.40;;;12.00;;
47882;SDS011;37739;50.350;7.578;2024-01-30T04:00:40;13.63;;;12.37;;
47882;SDS011;37739;50.350;7.578;2024-01-30T04:03:09;15.40;;;13.90;;
47882;SDS011;37739;50.350;7.578;2024-01-30T04:05:37;13.03;;;11.73;;
47882;SDS011;37739;50.350;7.578;2024-01-30T04:08:02;14.83;;;13.33;;
47882;SDS011;37739;50.350;7.578;2024-01-30T04:10:35;14.30;;;12.90;;
47882;SDS011;37739;50.350;7.578;2024-01-30T04:13:03;15.00;;;13.50;;
47882;SDS011;37739;50.350;7.578;2024-01-30T04:15:28;14.23;;;12.83;;
47882;SDS011;37739;50.350;7.578;2024-01-30T04:17:57;14.30;;;11.70;;
47882;SDS011;37739;50.350;7.578;2024-01-30T04:20:23;14.33;;;12.83;;
47882;SDS011;37739;50.350;7.578;2024-01-30T04:22:48;14.97;;;13.40;;
47882;SDS011;37739;50.350;7.578;2024-01-30T04:25:16;13.40;;;12.00;;
47882;SDS011;37739;50.350;7.578;2024-01-30T04:27:44;15.07;;;13.60;;
47882;SDS011;37739;50.350;7.578;2024-01-30T04:30:16;14.33;;;12.83;;
47882;SDS011;37739;50.350;7.578;2024-01-30T04:32:42;18.27;;;14.37;;
47882;SDS011;37739;50.350;7.578;2024-01-30T04:35:08;16.27;;;14.67;;
47882;SDS011;37739;50.350;7.578;2024-01-30T04:37:33;14.87;;;13.37;;
47882;SDS011;37739;50.350;7.578;2024-01-30T04:39:58;15.63;;;13.93;;
47882;SDS011;37739;50.350;7.578;2024-01-30T04:42:26;13.17;;;11.87;;
47882;SDS011;37739;50.350;7.578;2024-01-30T04:44:51;15.83;;;14.20;;
47882;SDS011;37739;50.350;7.578;2024-01-30T04:47:19;15.63;;;12.43;;
47882;SDS011;37739;50.350;7.578;2024-01-30T04:49:47;15.30;;;13.80;;
47882;SDS011;37739;50.350;7.578;2024-01-30T04:52:12;14.40;;;13.00;;
47882;SDS011;37739;50.350;7.578;2024-01-30T04:54:38;17.37;;;13.93;;
47882;SDS011;37739;50.350;7.578;2024-01-30T04:57:04;15.87;;;14.27;;
47882;SDS011;37739;50.350;7.578;2024-01-30T04:59:36;15.30;;;13.70;;
47882;SDS011;37739;50.350;7.578;2024-01-30T05:02:01;16.50;;;14.47;;
47882;SDS011;37739;50.350;7.578;2024-01-30T05:04:26;15.47;;;13.87;;
47882;SDS011;37739;50.350;7.578;2024-01-30T05:06:52;15.87;;;13.20;;
47882;SDS011;37739;50.350;7.578;2024-01-30T05:09:19;16.13;;;14.43;;
47882;SDS011;37739;50.350;7.578;2024-01-30T05:11:45;18.20;;;16.20;;
47882;SDS011;37739;50.350;7.578;2024-01-30T05:14:10;17.80;;;16.00;;
47882;SDS011;37739;50.350;7.578;2024-01-30T05:16:36;16.93;;;15.07;;
47882;SDS011;37739;50.350;7.578;2024-01-30T05:19:02;15.10;;;13.37;;
47882;SDS011;37739;50.350;7.578;2024-01-30T05:21:27;15.83;;;14.13;;
47882;SDS011;37739;50.350;7.578;2024-01-30T05:23:57;18.10;;;16.30;;
47882;SDS011;37739;50.350;7.578;2024-01-30T05:26:22;15.40;;;13.87;;
47882;SDS011;37739;50.350;7.578;2024-01-30T05:28:48;16.10;;;14.40;;
47882;SDS011;37739;50.350;7.578;2024-01-30T05:31:16;15.30;;;13.70;;
47882;SDS011;37739;50.350;7.578;2024-01-30T05:33:44;17.53;;;15.13;;
47882;SDS011;37739;50.350;7.578;2024-01-30T05:36:12;19.03;;;15.70;;
47882;SDS011;37739;50.350;7.578;2024-01-30T05:38:38;14.87;;;13.43;;
47882;SDS011;37739;50.350;7.578;2024-01-30T05:41:03;17.40;;;15.47;;
47882;SDS011;37739;50.350;7.578;2024-01-30T05:43:31;16.20;;;14.60;;
47882;SDS011;37739;50.350;7.578;2024-01-30T05:45:56;16.80;;;15.10;;
47882;SDS011;37739;50.350;7.578;2024-01-30T05:48:22;18.47;;;16.33;;
47882;SDS011;37739;50.350;7.578;2024-01-30T05:50:49;16.53;;;14.83;;
47882;SDS011;37739;50.350;7.578;2024-01-30T05:53:15;16.53;;;14.93;;
47882;SDS011;37739;50.350;7.578;2024-01-30T05:55:40;16.17;;;14.50;;
47882;SDS011;37739;50.350;7.578;2024-01-30T05:58:07;16.70;;;15.20;;
47882;SDS011;37739;50.350;7.578;2024-01-30T06:00:33;18.53;;;16.37;;
47882;SDS011;37739;50.350;7.578;2024-01-30T06:03:00;17.40;;;15.40;;
47882;SDS011;37739;50.350;7.578;2024-01-30T06:05:25;17.13;;;15.43;;
47882;SDS011;37739;50.350;7.578;2024-01-30T06:07:51;17.17;;;15.40;;
47882;SDS011;37739;50.350;7.578;2024-01-30T06:10:18;17.13;;;15.00;;
47882;SDS011;37739;50.350;7.578;2024-01-30T06:12:44;15.97;;;14.30;;
47882;SDS011;37739;50.350;7.578;2024-01-30T06:15:09;18.90;;;16.40;;
47882;SDS011;37739;50.350;7.578;2024-01-30T06:17:39;16.43;;;13.57;;
47882;SDS011;37739;50.350;7.578;2024-01-30T06:20:05;14.93;;;13.47;;
47882;SDS011;37739;50.350;7.578;2024-01-30T06:22:35;17.07;;;13.73;;
47882;SDS011;37739;50.350;7.578;2024-01-30T06:25:00;18.80;;;16.90;;
47882;SDS011;37739;50.350;7.578;2024-01-30T06:27:26;16.43;;;14.73;;
47882;SDS011;37739;50.350;7.578;2024-01-30T06:29:52;15.13;;;13.53;;
47882;SDS011;37739;50.350;7.578;2024-01-30T06:32:17;15.10;;;13.50;;
47882;SDS011;37739;50.350;7.578;2024-01-30T06:34:45;17.60;;;15.00;;
47882;SDS011;37739;50.350;7.578;2024-01-30T06:37:10;15.00;;;13.50;;
47882;SDS011;37739;50.350;7.578;2024-01-30T06:39:35;16.67;;;14.97;;
47882;SDS011;37739;50.350;7.578;2024-01-30T06:42:03;14.90;;;13.33;;
47882;SDS011;37739;50.350;7.578;2024-01-30T06:44:33;16.07;;;14.43;;
47882;SDS011;37739;50.350;7.578;2024-01-30T06:46:59;15.30;;;13.80;;
47882;SDS011;37739;50.350;7.578;2024-01-30T06:49:24;14.07;;;12.67;;
47882;SDS011;37739;50.350;7.578;2024-01-30T06:51:49;16.33;;;14.63;;
47882;SDS011;37739;50.350;7.578;2024-01-30T06:54:14;16.17;;;13.87;;
47882;SDS011;37739;50.350;7.578;2024-01-30T06:56:42;15.57;;;14.10;;
47882;SDS011;37739;50.350;7.578;2024-01-30T06:59:09;15.17;;;13.60;;
47882;SDS011;37739;50.350;7.578;2024-01-30T07:01:35;14.23;;;12.73;;
47882;SDS011;37739;50.350;7.578;2024-01-30T07:04:03;15.13;;;13.60;;
47882;SDS011;37739;50.350;7.578;2024-01-30T07:06:28;15.27;;;13.63;;
47882;SDS011;37739;50.350;7.578;2024-01-30T07:08:53;16.13;;;14.43;;
47882;SDS011;37739;50.350;7.578;2024-01-30T07:11:21;14.97;;;12.80;;
47882;SDS011;37739;50.350;7.578;2024-01-30T07:13:50;15.17;;;13.17;;
47882;SDS011;37739;50.350;7.578;2024-01-30T07:16:18;14.67;;;13.17;;
47882;SDS011;37739;50.350;7.578;2024-01-30T07:18:47;13.10;;;11.80;;
47882;SDS011;37739;50.350;7.578;2024-01-30T07:21:12;12.10;;;10.53;;
47882;SDS011;37739;50.350;7.578;2024-01-30T07:23:40;10.67;;;8.77;;
47882;SDS011;37739;50.350;7.578;2024-01-30T07:26:09;12.07;;;10.63;;
47882;SDS011;37739;50.350;7.578;2024-01-30T07:28:34;13.47;;;11.67;;
47882;SDS011;37739;50.350;7.578;2024-01-30T07:31:00;12.93;;;11.63;;
47882;SDS011;37739;50.350;7.578;2024-01-30T07:33:26;15.30;;;12.77;;
47882;SDS011;37739;50.350;7.578;2024-01-30T07:35:54;12.03;;;10.83;;
47882;SDS011;37739;50.350;7.578;2024-01-30T07:38:22;11.70;;;10.60;;
47882;SDS011;37739;50.350;7.578;2024-01-30T07:40:47;13.80;;;12.47;;
47882;SDS011;37739;50.350;7.578;2024-01-30T07:43:17;21.63;;;13.33;;
47882;SDS011;37739;50.350;7.578;2024-01-30T07:45:45;15.80;;;13.20;;
47882;SDS011;37739;50.350;7.578;2024-01-30T07:48:10;15.87;;;14.13;;
47882;SDS011;37739;50.350;7.578;2024-01-30T07:50:39;16.40;;;14.80;;
47882;SDS011;37739;50.350;7.578;2024-01-30T07:53:06;16.43;;;14.73;;
47882;SDS011;37739;50.350;7.578;2024-01-30T07:55:34;16.73;;;15.03;;
47882;SDS011;37739;50.350;7.578;2024-01-30T07:57:59;18.00;;;15.93;;
47882;SDS011;37739;50.350;7.578;2024-01-30T08:00:25;15.33;;;13.73;;
47882;SDS011;37739;50.350;7.578;2024-01-30T08:02:50;16.77;;;15.07;;
47882;SDS011;37739;50.350;7.578;2024-01-30T08:05:19;16.73;;;14.97;;
47882;SDS011;37739;50.350;7.578;2024-01-30T08:07:44;17.87;;;14.23;;
47882;SDS011;37739;50.350;7.578;2024-01-30T08:10:12;17.47;;;15.63;;
47882;SDS011;37739;50.350;7.578;2024-01-30T08:12:38;14.13;;;12.63;;
47882;SDS011;37739;50.350;7.578;2024-01-30T08:15:08;15.10;;;13.70;;
47882;SDS011;37739;50.350;7.578;2024-01-30T08:17:34;16.20;;;14.60;;
47882;SDS011;37739;50.350;7.578;2024-01-30T08:19:59;16.90;;;14.53;;
47882;SDS011;37739;50.350;7.578;2024-01-30T08:22:24;17.13;;;14.57;;
47882;SDS011;37739;50.350;7.578;2024-01-30T08:24:52;16.13;;;14.13;;
47882;SDS011;37739;50.350;7.578;2024-01-30T08:27:19;16.57;;;13.30;;
47882;SDS011;37739;50.350;7.578;2024-01-30T08:29:47;16.17;;;14.57;;
47882;SDS011;37739;50.350;7.578;2024-01-30T08:32:15;15.67;;;14.17;;
47882;SDS011;37739;50.350;7.578;2024-01-30T08:34:43;14.83;;;13.27;;
47882;SDS011;37739;50.350;7.578;2024-01-30T08:37:11;16.93;;;15.13;;
47882;SDS011;37739;50.350;7.578;2024-01-30T08:39:37;14.80;;;12.73;;
47882;SDS011;37739;50.350;7.578;2024-01-30T08:42:04;16.10;;;14.60;;
47882;SDS011;37739;50.350;7.578;2024-01-30T08:44:33;16.83;;;14.50;;
47882;SDS011;37739;50.350;7.578;2024-01-30T08:47:02;16.27;;;14.70;;
47882;SDS011;37739;50.350;7.578;2024-01-30T08:49:28;16.57;;;14.73;;
47882;SDS011;37739;50.350;7.578;2024-01-30T08:51:53;12.10;;;10.90;;
47882;SDS011;37739;50.350;7.578;2024-01-30T08:54:21;13.20;;;11.80;;
47882;SDS011;37739;50.350;7.578;2024-01-30T08:56:51;17.63;;;15.33;;
47882;SDS011;37739;50.350;7.578;2024-01-30T08:59:21;14.47;;;13.07;;
47882;SDS011;37739;50.350;7.578;2024-01-30T09:01:49;13.60;;;11.67;;
47882;SDS011;37739;50.350;7.578;2024-01-30T09:04:20;14.43;;;12.67;;
47882;SDS011;37739;50.350;7.578;2024-01-30T09:06:47;12.83;;;11.53;;
47882;SDS011;37739;50.350;7.578;2024-01-30T09:09:13;15.93;;;12.27;;
47882;SDS011;37739;50.350;7.578;2024-01-30T09:11:39;13.57;;;12.27;;
47882;SDS011;37739;50.350;7.578;2024-01-30T09:14:05;15.30;;;13.70;;
47882;SDS011;37739;50.350;7.578;2024-01-30T09:16:32;15.70;;;14.20;;
47882;SDS011;37739;50.350;7.578;2024-01-30T09:18:58;13.97;;;12.00;;
47882;SDS011;37739;50.350;7.578;2024-01-30T09:21:24;13.97;;;12.60;;
47882;SDS011;37739;50.350;7.578;2024-01-30T09:23:53;15.70;;;13.60;;
47882;SDS011;37739;50.350;7.578;2024-01-30T09:26:29;12.13;;;11.00;;
47882;SDS011;37739;50.350;7.578;2024-01-30T09:28:56;15.17;;;13.60;;
47882;SDS011;37739;50.350;7.578;2024-01-30T09:31:24;13.50;;;12.10;;
47882;SDS011;37739;50.350;7.578;2024-01-30T09:33:52;15.20;;;13.63;;
47882;SDS011;37739;50.350;7.578;2024-01-30T09:36:19;16.23;;;14.53;;
47882;SDS011;37739;50.350;7.578;2024-01-30T09:38:45;15.47;;;13.33;;
47882;SDS011;37739;50.350;7.578;2024-01-30T09:41:10;12.17;;;10.97;;
47882;SDS011;37739;50.350;7.578;2024-01-30T09:43:36;11.93;;;10.87;;
47882;SDS011;37739;50.350;7.578;2024-01-30T09:46:04;11.50;;;10.40;;
47882;SDS011;37739;50.350;7.578;2024-01-30T09:48:30;11.43;;;10.33;;
47882;SDS011;37739;50.350;7.578;2024-01-30T09:50:57;8.67;;;7.87;;
47882;SDS011;37739;50.350;7.578;2024-01-30T09:53:23;10.97;;;8.87;;
47882;SDS011;37739;50.350;7.578;2024-01-30T09:55:50;8.20;;;7.37;;
47882;SDS011;37739;50.350;7.578;2024-01-30T09:58:18;7.57;;;6.80;;
47882;SDS011;37739;50.350;7.578;2024-01-30T10:00:43;7.07;;;6.37;;
47882;SDS011;37739;50.350;7.578;2024-01-30T10:03:08;7.40;;;6.70;;
47882;SDS011;37739;50.350;7.578;2024-01-30T10:05:35;7.23;;;6.53;;
47882;SDS011;37739;50.350;7.578;2024-01-30T10:08:05;7.60;;;6.90;;
47882;SDS011;37739;50.350;7.578;2024-01-30T10:10:33;7.43;;;5.47;;
47882;SDS011;37739;50.350;7.578;2024-01-30T10:13:01;6.80;;;6.20;;
47882;SDS011;37739;50.350;7.578;2024-01-30T10:15:27;7.70;;;6.90;;
47882;SDS011;37739;50.350;7.578;2024-01-30T10:17:55;9.67;;;8.67;;
47882;SDS011;37739;50.350;7.578;2024-01-30T10:20:20;12.77;;;11.53;;
47882;SDS011;37739;50.350;7.578;2024-01-30T10:22:47;11.27;;;10.27;;
47882;SDS011;37739;50.350;7.578;2024-01-30T10:25:15;12.37;;;11.20;;
47882;SDS011;37739;50.350;7.578;2024-01-30T10:27:41;13.97;;;12.40;;
47882;SDS011;37739;50.350;7.578;2024-01-30T10:30:09;13.00;;;11.57;;
47882;SDS011;37739;50.350;7.578;2024-01-30T10:32:35;13.53;;;12.20;;
47882;SDS011;37739;50.350;7.578;2024-01-30T10:35:03;11.47;;;10.37;;
47882;SDS011;37739;50.350;7.578;2024-01-30T10:37:31;13.00;;;11.63;;
47882;SDS011;37739;50.350;7.578;2024-01-30T10:40:00;12.57;;;11.27;;
47882;SDS011;37739;50.350;7.578;2024-01-30T10:42:31;12.60;;;11.13;;
47882;SDS011;37739;50.350;7.578;2024-01-30T10:47:39;12.93;;;11.63;;
47882;SDS011;37739;50.350;7.578;2024-01-30T10:50:08;13.73;;;12.43;;
47882;SDS011;37739;50.350;7.578;2024-01-30T10:52:35;12.07;;;10.57;;
47882;SDS011;37739;50.350;7.578;2024-01-30T10:55:03;11.67;;;10.53;;
47882;SDS011;37739;50.350;7.578;2024-01-30T10:57:31;14.07;;;11.10;;
47882;SDS011;37739;50.350;7.578;2024-01-30T11:00:04;11.90;;;10.63;;
47882;SDS011;37739;50.350;7.578;2024-01-30T11:02:36;11.03;;;9.87;;
47882;SDS011;37739;50.350;7.578;2024-01-30T11:05:04;9.47;;;8.60;;
47882;SDS011;37739;50.350;7.578;2024-01-30T11:07:30;10.70;;;9.60;;
47882;SDS011;37739;50.350;7.578;2024-01-30T11:12:25;12.80;;;11.50;;
47882;SDS011;37739;50.350;7.578;2024-01-30T11:17:51;9.57;;;8.40;;
47882;SDS011;37739;50.350;7.578;2024-01-30T11:22:46;8.30;;;7.50;;
47882;SDS011;37739;50.350;7.578;2024-01-30T11:25:15;7.80;;;7.10;;
47882;SDS011;37739;50.350;7.578;2024-01-30T11:27:44;7.70;;;7.00;;
47882;SDS011;37739;50.350;7.578;2024-01-30T11:30:25;8.60;;;7.73;;
47882;SDS011;37739;50.350;7.578;2024-01-30T11:33:05;8.00;;;7.20;;
47882;SDS011;37739;50.350;7.578;2024-01-30T11:35:36;6.43;;;5.83;;
47882;SDS011;37739;50.350;7.578;2024-01-30T11:38:04;8.00;;;7.20;;
47882;SDS011;37739;50.350;7.578;2024-01-30T11:40:31;6.93;;;6.23;;
47882;SDS011;37739;50.350;7.578;2024-01-30T11:42:58;6.77;;;6.00;;
47882;SDS011;37739;50.350;7.578;2024-01-30T11:45:24;11.40;;;8.20;;
47882;SDS011;37739;50.350;7.578;2024-01-30T11:47:49;10.10;;;9.10;;
47882;SDS011;37739;50.350;7.578;2024-01-30T11:50:18;9.33;;;7.90;;
47882;SDS011;37739;50.350;7.578;2024-01-30T11:52:47;9.17;;;8.37;;
47882;SDS011;37739;50.350;7.578;2024-01-30T11:55:13;9.43;;;8.53;;
47882;SDS011;37739;50.350;7.578;2024-01-30T11:57:42;8.23;;;7.27;;
47882;SDS011;37739;50.350;7.578;2024-01-30T12:00:18;7.97;;;7.27;;
47882;SDS011;37739;50.350;7.578;2024-01-30T12:02:50;8.67;;;7.47;;
47882;SDS011;37739;50.350;7.578;2024-01-30T12:05:24;8.07;;;7.27;;
47882;SDS011;37739;50.350;7.578;2024-01-30T12:07:52;6.80;;;6.10;;
47882;SDS011;37739;50.350;7.578;2024-01-30T12:10:24;6.87;;;6.27;;
47882;SDS011;37739;50.350;7.578;2024-01-30T12:12:52;6.30;;;5.70;;
47882;SDS011;37739;50.350;7.578;2024-01-30T12:15:21;5.27;;;4.77;;
47882;SDS011;37739;50.350;7.578;2024-01-30T12:17:47;7.33;;;4.57;;
47882;SDS011;37739;50.350;7.578;2024-01-30T12:20:17;6.83;;;5.67;;
47882;SDS011;37739;50.350;7.578;2024-01-30T12:22:44;7.27;;;5.30;;
47882;SDS011;37739;50.350;7.578;2024-01-30T12:25:20;6.20;;;5.60;;
47882;SDS011;37739;50.350;7.578;2024-01-30T12:27:46;5.50;;;4.90;;
47882;SDS011;37739;50.350;7.578;2024-01-30T12:30:15;6.20;;;5.60;;
47882;SDS011;37739;50.350;7.578;2024-01-30T12:32:42;8.03;;;6.90;;
47882;SDS011;37739;50.350;7.578;2024-01-30T12:35:16;6.00;;;5.40;;
47882;SDS011;37739;50.350;7.578;2024-01-30T12:37:45;5.90;;;5.03;;
47882;SDS011;37739;50.350;7.578;2024-01-30T12:40:11;5.20;;;4.70;;
47882;SDS011;37739;50.350;7.578;2024-01-30T12:42:43;5.43;;;4.93;;
47882;SDS011;37739;50.350;7.578;2024-01-30T12:45:16;6.13;;;4.93;;
47882;SDS011;37739;50.350;7.578;2024-01-30T12:47:45;6.80;;;5.40;;
47882;SDS011;37739;50.350;7.578;2024-01-30T12:50:12;5.33;;;4.40;;
47882;SDS011;37739;50.350;7.578;2024-01-30T12:52:41;5.40;;;4.53;;
47882;SDS011;37739;50.350;7.578;2024-01-30T12:55:07;7.73;;;5.90;;
47882;SDS011;37739;50.350;7.578;2024-01-30T12:57:32;5.63;;;5.13;;
47882;SDS011;37739;50.350;7.578;2024-01-30T12:59:58;4.40;;;4.00;;
47882;SDS011;37739;50.350;7.578;2024-01-30T13:02:25;6.07;;;4.97;;
47882;SDS011;37739;50.350;7.578;2024-01-30T13:04:57;4.97;;;4.47;;
47882;SDS011;37739;50.350;7.578;2024-01-30T13:07:22;4.30;;;3.90;;
47882;SDS011;37739;50.350;7.578;2024-01-30T13:09:50;10.33;;;7.60;;
47882;SDS011;37739;50.350;7.578;2024-01-30T13:12:15;5.70;;;5.20;;
47882;SDS011;37739;50.350;7.578;2024-01-30T13:14:41;6.07;;;4.83;;
47882;SDS011;37739;50.350;7.578;2024-01-30T13:17:06;5.60;;;5.10;;
47882;SDS011;37739;50.350;7.578;2024-01-30T13:19:34;6.17;;;5.57;;
47882;SDS011;37739;50.350;7.578;2024-01-30T13:22:02;6.20;;;5.00;;
47882;SDS011;37739;50.350;7.578;2024-01-30T13:24:29;5.30;;;4.70;;
47882;SDS011;37739;50.350;7.578;2024-01-30T13:26:57;4.97;;;4.23;;
47882;SDS011;37739;50.350;7.578;2024-01-30T13:29:25;4.80;;;4.03;;
47882;SDS011;37739;50.350;7.578;2024-01-30T13:31:50;5.40;;;4.90;;
47882;SDS011;37739;50.350;7.578;2024-01-30T13:34:15;4.87;;;4.10;;
47882;SDS011;37739;50.350;7.578;2024-01-30T13:36:43;5.10;;;3.90;;
47882;SDS011;37739;50.350;7.578;2024-01-30T13:39:11;6.03;;;5.43;;
47882;SDS011;37739;50.350;7.578;2024-01-30T13:41:37;4.80;;;4.30;;
47882;SDS011;37739;50.350;7.578;2024-01-30T13:44:05;6.23;;;4.80;;
47882;SDS011;37739;50.350;7.578;2024-01-30T13:46:33;4.57;;;4.13;;
47882;SDS011;37739;50.350;7.578;2024-01-30T13:48:58;5.80;;;4.17;;
47882;SDS011;37739;50.350;7.578;2024-01-30T13:51:26;4.70;;;4.30;;
47882;SDS011;37739;50.350;7.578;2024-01-30T13:53:51;4.60;;;3.90;;
47882;SDS011;37739;50.350;7.578;2024-01-30T13:56:19;5.30;;;4.80;;
47882;SDS011;37739;50.350;7.578;2024-01-30T13:58:46;3.77;;;3.43;;
47882;SDS011;37739;50.350;7.578;2024-01-30T14:01:13;4.63;;;4.23;;
47882;SDS011;37739;50.350;7.578;2024-01-30T14:03:38;5.00;;;4.50;;
47882;SDS011;37739;50.350;7.578;2024-01-30T14:06:03;3.80;;;3.50;;
47882;SDS011;37739;50.350;7.578;2024-01-30T14:08:29;4.87;;;4.37;;
47882;SDS011;37739;50.350;7.578;2024-01-30T14:10:57;6.63;;;4.23;;
47882;SDS011;37739;50.350;7.578;2024-01-30T14:13:22;5.10;;;4.20;;
47882;SDS011;37739;50.350;7.578;2024-01-30T14:15:49;4.00;;;3.53;;
47882;SDS011;37739;50.350;7.578;2024-01-30T14:18:17;6.70;;;4.80;;
47882;SDS011;37739;50.350;7.578;2024-01-30T14:20:45;5.00;;;4.10;;
47882;SDS011;37739;50.350;7.578;2024-01-30T14:23:13;6.03;;;4.47;;
47882;SDS011;37739;50.350;7.578;2024-01-30T14:25:38;5.33;;;4.83;;
47882;SDS011;37739;50.350;7.578;2024-01-30T14:28:04;4.97;;;4.50;;
47882;SDS011;37739;50.350;7.578;2024-01-30T14:30:31;5.70;;;5.10;;
47882;SDS011;37739;50.350;7.578;2024-01-30T14:32:57;5.20;;;4.70;;
47882;SDS011;37739;50.350;7.578;2024-01-30T14:35:22;5.50;;;4.93;;
47882;SDS011;37739;50.350;7.578;2024-01-30T14:37:47;6.30;;;5.40;;